< < Back
Terminal Aerodrome Forecast


Current Version              Previous Versions:   1  2  3  4  5  6  7  8  9  

Terminal Aerodrome Forecast

648
FTUS44 KBMX 221100
TAFMGM
TAF
KMGM 221124Z 2212/2312 01005KT P6SM SKC
     FM221500 02008KT P6SM SKC
     FM230000 01003KT P6SM SKC=



Latest METAR

731
SAUS80 KWBC 230200
MTRMGM
METAR KMGM 230153Z 34004KT 10SM CLR 14/07 A3011 RMK AO2 SLP197
T01390072


USA.gov is the U.S. government's official web portal to all federal, state and local government web resources and services.